createdAt,value
2023-02-17T00:08:01.936Z,1.50
2023-02-17T00:10:29.390Z,1.40
2023-02-17T00:12:56.786Z,0.00
2023-02-17T00:15:24.338Z,1.50
2023-02-17T00:17:51.764Z,1.50
2023-02-17T00:20:22.121Z,1.50
2023-02-17T00:22:49.659Z,1.30
2023-02-17T00:25:17.433Z,1.50
2023-02-17T00:27:44.914Z,1.50
2023-02-17T00:30:12.556Z,1.60
2023-02-17T00:32:40.011Z,1.80
2023-02-17T00:35:08.514Z,0.40
2023-02-17T00:37:36.184Z,1.70
2023-02-17T00:40:03.772Z,1.80
2023-02-17T00:42:31.073Z,1.50
2023-02-17T00:44:59.066Z,1.40
2023-02-17T00:47:26.763Z,1.80
2023-02-17T00:49:56.549Z,1.80
2023-02-17T00:52:24.334Z,1.80
2023-02-17T00:54:51.827Z,1.50
2023-02-17T00:57:19.347Z,1.60
2023-02-17T00:59:46.813Z,1.70
2023-02-17T01:02:14.383Z,1.30
2023-02-17T01:04:41.829Z,1.70
2023-02-17T01:07:09.347Z,2.40
2023-02-17T01:09:36.800Z,1.70
2023-02-17T01:12:04.405Z,1.70
2023-02-17T01:14:32.405Z,1.70
2023-02-17T01:16:59.900Z,1.80
2023-02-17T01:19:27.300Z,1.80
2023-02-17T01:21:54.997Z,1.50
2023-02-17T01:24:22.529Z,1.50
2023-02-17T01:26:50.042Z,1.60
2023-02-17T01:29:17.720Z,1.60
2023-02-17T01:31:46.049Z,1.70
2023-02-17T01:34:13.527Z,1.70
2023-02-17T01:36:41.642Z,1.40
2023-02-17T01:39:11.400Z,1.50
2023-02-17T01:41:38.656Z,1.60
2023-02-17T01:44:23.143Z,1.70
2023-02-17T01:46:55.980Z,1.50
2023-02-17T01:49:40.800Z,2.30
2023-02-17T01:52:19.044Z,1.70
2023-02-17T01:55:04.034Z,1.30
2023-02-17T01:57:37.641Z,1.60
2023-02-17T02:00:11.431Z,1.70
2023-02-17T02:02:42.247Z,1.60
2023-02-17T02:05:12.261Z,1.60
2023-02-17T02:07:43.746Z,1.50
2023-02-17T02:10:16.035Z,1.50
2023-02-17T02:12:44.260Z,1.70
2023-02-17T02:15:17.507Z,1.40
2023-02-17T02:18:12.273Z,1.80
2023-02-17T02:21:26.869Z,1.70
2023-02-17T02:24:02.880Z,1.50
2023-02-17T02:27:01.050Z,1.40
2023-02-17T02:29:58.138Z,1.40
2023-02-17T02:32:57.441Z,1.50
2023-02-17T02:35:59.379Z,1.60
2023-02-17T02:39:09.780Z,1.40
2023-02-17T02:41:45.952Z,1.60
2023-02-17T02:44:19.200Z,1.40
2023-02-17T02:49:53.962Z,1.30
2023-02-17T02:53:10.334Z,1.40
2023-02-17T02:56:20.825Z,1.40
2023-02-17T02:59:08.467Z,1.20
2023-02-17T03:03:07.433Z,1.40
2023-02-17T03:06:13.003Z,1.50
2023-02-17T03:09:13.034Z,1.60
2023-02-17T03:11:42.293Z,1.20
2023-02-17T03:14:15.287Z,0.90
2023-02-17T03:16:43.816Z,1.30
2023-02-17T03:19:13.015Z,1.00
2023-02-17T03:21:44.350Z,1.10
2023-02-17T03:24:11.869Z,1.10
2023-02-17T03:26:39.917Z,1.40
2023-02-17T03:29:07.291Z,1.30
2023-02-17T03:31:35.328Z,1.00
2023-02-17T03:34:03.302Z,0.90
2023-02-17T03:36:30.947Z,0.90
2023-02-17T03:38:58.716Z,1.30
2023-02-17T03:41:26.489Z,-1.10
2023-02-17T03:43:54.054Z,1.30
2023-02-17T03:46:21.614Z,2.60
2023-02-17T03:48:49.004Z,1.00
2023-02-17T03:51:22.138Z,1.40
2023-02-17T03:53:50.946Z,1.30
2023-02-17T03:56:19.756Z,1.40
2023-02-17T03:58:47.663Z,1.10
2023-02-17T04:01:15.817Z,1.10
2023-02-17T04:03:43.499Z,1.40
2023-02-17T04:06:12.244Z,1.10
2023-02-17T04:08:40.561Z,2.00
2023-02-17T04:11:10.390Z,1.30
2023-02-17T04:13:40.105Z,1.10
2023-02-17T04:16:10.165Z,1.10
2023-02-17T04:18:38.033Z,1.10
2023-02-17T04:21:06.790Z,1.00
2023-02-17T04:23:36.952Z,1.00
2023-02-17T04:26:07.111Z,1.00
2023-02-17T04:28:37.928Z,1.00
2023-02-17T04:31:05.472Z,1.00
2023-02-17T04:33:33.416Z,1.00
2023-02-17T04:36:01.449Z,1.00
2023-02-17T04:38:31.865Z,1.00
2023-02-17T04:41:00.674Z,0.90
2023-02-17T04:43:29.341Z,0.80
2023-02-17T04:45:57.287Z,1.00
2023-02-17T04:48:26.261Z,0.90
2023-02-17T04:50:53.683Z,1.10
2023-02-17T04:53:21.775Z,1.10
2023-02-17T04:55:53.852Z,1.10
2023-02-17T04:58:21.671Z,1.30
2023-02-17T05:00:50.816Z,1.10
2023-02-17T05:03:19.234Z,1.10
2023-02-17T05:05:47.045Z,1.00
2023-02-17T05:08:14.564Z,1.00
2023-02-17T05:10:42.439Z,1.00
2023-02-17T05:13:10.167Z,1.20
2023-02-17T05:15:39.166Z,1.00
2023-02-17T05:18:06.892Z,1.10
2023-02-17T05:20:34.570Z,1.00
2023-02-17T05:23:02.175Z,0.90
2023-02-17T05:25:30.217Z,1.00
2023-02-17T05:27:57.844Z,1.10
2023-02-17T05:30:25.364Z,1.20
2023-02-17T05:33:02.585Z,1.20
2023-02-17T05:35:30.288Z,1.10
2023-02-17T05:37:57.806Z,1.30
2023-02-17T05:43:09.577Z,1.30
2023-02-17T05:45:37.692Z,1.10
2023-02-17T05:48:05.455Z,1.30
2023-02-17T05:50:33.149Z,1.00
2023-02-17T05:53:00.658Z,1.30
2023-02-17T05:55:28.056Z,1.40
2023-02-17T05:57:56.224Z,1.40
2023-02-17T06:00:24.545Z,1.60
2023-02-17T06:02:55.679Z,1.20
2023-02-17T06:05:23.540Z,1.20
2023-02-17T06:07:50.910Z,1.20
2023-02-17T06:10:18.349Z,1.40
2023-02-17T06:12:45.869Z,1.50
2023-02-17T06:15:15.778Z,1.40
2023-02-17T06:17:43.095Z,1.40
2023-02-17T06:20:11.317Z,1.10
2023-02-17T06:22:38.653Z,1.30
2023-02-17T06:25:06.451Z,1.30
2023-02-17T06:27:33.789Z,1.50
2023-02-17T06:30:01.491Z,1.10
2023-02-17T06:32:30.576Z,1.30
2023-02-17T06:34:58.255Z,1.30
2023-02-17T06:37:25.865Z,1.40
2023-02-17T06:39:53.189Z,1.20
2023-02-17T06:42:23.584Z,1.80
2023-02-17T06:44:51.354Z,1.70
2023-02-17T06:47:18.796Z,1.40
2023-02-17T06:49:53.559Z,1.40
2023-02-17T06:52:21.222Z,1.80
2023-02-17T06:54:52.180Z,1.80
2023-02-17T06:57:19.547Z,1.80
2023-02-17T06:59:48.528Z,1.80
2023-02-17T07:02:15.958Z,1.80
2023-02-17T07:04:48.651Z,1.90
2023-02-17T07:07:16.079Z,1.80
2023-02-17T07:09:44.145Z,1.70
2023-02-17T07:12:13.652Z,1.60
2023-02-17T07:15:17.430Z,1.60
2023-02-17T07:17:50.729Z,1.70
2023-02-17T07:20:21.169Z,1.90
2023-02-17T07:22:59.027Z,1.50
2023-02-17T07:25:27.680Z,1.50
2023-02-17T07:27:54.940Z,1.80
2023-02-17T07:30:22.533Z,1.70
2023-02-17T07:32:50.516Z,1.80
2023-02-17T07:35:22.891Z,1.70
2023-02-17T07:38:00.368Z,1.60
2023-02-17T07:40:30.939Z,1.70
2023-02-17T07:42:58.622Z,1.80
2023-02-17T07:45:28.581Z,1.80
2023-02-17T07:47:58.671Z,2.10
2023-02-17T07:50:27.005Z,1.90
2023-02-17T07:52:54.383Z,2.30
2023-02-17T07:55:32.016Z,1.90
2023-02-17T07:58:00.163Z,2.20
2023-02-17T08:00:27.792Z,2.20
2023-02-17T08:02:55.300Z,2.50
2023-02-17T08:05:22.608Z,2.40
2023-02-17T08:08:10.168Z,2.30
2023-02-17T08:10:57.809Z,2.50
2023-02-17T08:13:27.867Z,2.50
2023-02-17T08:15:55.469Z,3.20
2023-02-17T08:18:22.933Z,3.00
2023-02-17T08:20:58.810Z,3.20
2023-02-17T08:23:25.942Z,3.20
2023-02-17T08:26:27.952Z,3.50
2023-02-17T08:29:42.508Z,3.40
2023-02-17T08:32:10.262Z,3.50
2023-02-17T08:34:37.585Z,3.50
2023-02-17T08:37:06.784Z,3.70
2023-02-17T08:39:41.188Z,3.90
2023-02-17T08:42:08.574Z,3.40
2023-02-17T08:44:39.520Z,3.70
2023-02-17T08:47:10.675Z,4.10
2023-02-17T08:50:28.300Z,4.00
2023-02-17T08:53:48.845Z,4.40
2023-02-17T08:56:16.403Z,4.50
2023-02-17T08:58:43.694Z,4.40
2023-02-17T09:01:15.670Z,4.40
2023-02-17T09:03:43.071Z,4.40
2023-02-17T09:06:10.428Z,4.40
2023-02-17T09:08:39.384Z,4.60
2023-02-17T09:11:09.648Z,5.00
2023-02-17T09:13:37.297Z,5.10
2023-02-17T09:16:05.829Z,4.80
2023-02-17T09:18:33.328Z,4.80
2023-02-17T09:21:06.495Z,4.90
2023-02-17T09:23:33.956Z,4.90
2023-02-17T09:26:05.550Z,5.00
2023-02-17T09:28:33.744Z,4.90
2023-02-17T09:31:21.062Z,4.50
2023-02-17T09:33:49.745Z,4.80
2023-02-17T09:36:21.858Z,5.30
2023-02-17T09:38:50.669Z,5.20
2023-02-17T09:41:43.232Z,5.10
2023-02-17T09:44:26.683Z,5.20
2023-02-17T09:47:05.709Z,5.00
2023-02-17T09:49:45.209Z,5.20
2023-02-17T09:52:32.610Z,4.90
2023-02-17T09:55:06.469Z,5.10
2023-02-17T09:57:53.529Z,4.90
2023-02-17T10:00:39.129Z,4.90
2023-02-17T10:03:17.899Z,4.80
2023-02-17T10:06:09.876Z,4.80
2023-02-17T10:08:57.020Z,4.80
2023-02-17T10:11:33.135Z,4.70
2023-02-17T10:14:15.711Z,4.50
2023-02-17T10:16:51.594Z,4.80
2023-02-17T10:19:31.675Z,4.80
2023-02-17T10:22:17.569Z,5.00
2023-02-17T10:24:45.236Z,4.70
2023-02-17T10:27:28.635Z,4.80
2023-02-17T10:30:26.199Z,4.90
2023-02-17T10:33:26.774Z,4.90
2023-02-17T10:36:12.262Z,4.80
2023-02-17T10:38:54.779Z,5.00
2023-02-17T10:41:31.053Z,5.30
2023-02-17T10:44:00.394Z,5.40
2023-02-17T10:46:35.020Z,5.50
2023-02-17T10:49:07.132Z,5.60
2023-02-17T10:51:34.556Z,5.50
2023-02-17T10:54:25.355Z,5.90
2023-02-17T10:56:58.361Z,5.50
2023-02-17T10:59:45.586Z,5.40
2023-02-17T11:02:35.456Z,5.30
2023-02-17T11:05:03.127Z,5.50
2023-02-17T11:07:42.095Z,5.30
2023-02-17T11:10:32.945Z,5.40
2023-02-17T11:15:54.397Z,5.50
2023-02-17T11:18:29.428Z,5.30
2023-02-17T11:21:08.540Z,5.20
2023-02-17T11:23:55.024Z,5.40
2023-02-17T11:26:31.688Z,5.30
2023-02-17T11:29:17.850Z,5.40
2023-02-17T11:32:14.044Z,5.20
2023-02-17T11:34:59.478Z,5.00
2023-02-17T11:37:29.576Z,5.10
2023-02-17T11:39:57.397Z,5.10
2023-02-17T11:42:44.301Z,5.00
2023-02-17T11:46:09.029Z,4.90
2023-02-17T11:49:03.587Z,4.90
2023-02-17T11:52:06.133Z,5.00
2023-02-17T11:58:51.189Z,4.80
2023-02-17T12:05:52.688Z,4.70
2023-02-17T12:34:49.083Z,4.80
2023-02-17T12:37:29.453Z,4.80
2023-02-17T12:40:21.889Z,4.80
2023-02-17T12:43:00.165Z,4.60
2023-02-17T12:45:49.294Z,4.50
2023-02-17T12:48:38.847Z,4.70
2023-02-17T12:51:24.487Z,5.50
2023-02-17T12:54:11.915Z,4.80
2023-02-17T12:57:24.594Z,4.90
2023-02-17T12:59:53.995Z,4.30
2023-02-17T13:02:25.207Z,4.80
2023-02-17T13:09:02.531Z,4.70
2023-02-17T13:12:00.231Z,4.80
2023-02-17T13:14:42.643Z,5.00
2023-02-17T13:17:36.915Z,4.80
2023-02-17T13:20:10.729Z,4.60
2023-02-17T13:22:46.160Z,4.60
2023-02-17T13:25:32.094Z,4.80
2023-02-17T13:28:21.100Z,4.70
2023-02-17T13:31:37.669Z,4.90
2023-02-17T13:34:51.003Z,4.80
2023-02-17T13:37:50.297Z,4.70
2023-02-17T13:40:30.864Z,4.70
2023-02-17T13:50:12.418Z,4.70
2023-02-17T13:53:47.797Z,4.60
2023-02-17T13:56:33.862Z,4.80
2023-02-17T14:03:37.621Z,4.80
2023-02-17T14:11:36.896Z,4.40
2023-02-17T14:14:40.255Z,5.50
2023-02-17T14:17:32.156Z,4.30
2023-02-17T14:20:04.059Z,4.70
2023-02-17T14:22:38.832Z,4.70
2023-02-17T14:25:31.374Z,4.60
2023-02-17T14:31:23.881Z,4.60
2023-02-17T14:34:26.892Z,4.70
2023-02-17T14:37:22.388Z,4.70
2023-02-17T14:39:51.086Z,4.60
2023-02-17T14:42:23.499Z,4.60
2023-02-17T14:44:53.666Z,4.70
2023-02-17T14:47:21.742Z,4.60
2023-02-17T14:49:49.408Z,4.70
2023-02-17T14:52:24.439Z,4.60
2023-02-17T14:56:01.158Z,4.70
2023-02-17T14:58:30.147Z,4.70
2023-02-17T15:03:41.896Z,4.60
2023-02-17T15:06:30.078Z,4.70
2023-02-17T15:09:04.361Z,4.60
2023-02-17T15:11:50.293Z,4.60
2023-02-17T15:37:52.385Z,4.60
2023-02-17T15:40:31.842Z,4.60
2023-02-17T15:43:06.535Z,4.80
2023-02-17T15:45:37.199Z,4.60
2023-02-17T15:48:21.933Z,4.60
2023-02-17T15:50:53.284Z,4.60
2023-02-17T15:53:25.768Z,4.50
2023-02-17T15:55:55.074Z,4.60
2023-02-17T15:58:25.978Z,4.60
2023-02-17T16:00:56.612Z,5.00
2023-02-17T16:03:51.497Z,4.50
2023-02-17T16:06:29.509Z,4.60
2023-02-17T16:09:04.959Z,4.70
2023-02-17T16:11:54.368Z,4.60
2023-02-17T16:14:37.766Z,4.60
2023-02-17T16:17:14.130Z,4.70
2023-02-17T16:19:42.722Z,4.40
2023-02-17T16:22:13.360Z,4.70
2023-02-17T16:24:51.231Z,4.70
2023-02-17T16:27:26.868Z,4.30
2023-02-17T16:30:29.811Z,4.30
2023-02-17T16:33:05.031Z,4.60
2023-02-17T16:35:33.481Z,4.30
2023-02-17T16:38:13.335Z,4.40
2023-02-17T16:40:49.523Z,4.30
2023-02-17T16:43:25.484Z,4.70
2023-02-17T16:46:40.852Z,4.60
2023-02-17T16:49:36.953Z,4.70
2023-02-17T16:55:23.877Z,4.50
2023-02-17T16:58:01.146Z,4.40
2023-02-17T17:01:01.446Z,4.40
2023-02-17T17:03:46.813Z,4.50
2023-02-17T17:06:24.914Z,4.60
2023-02-17T17:09:10.032Z,4.70
2023-02-17T17:11:44.536Z,4.60
2023-02-17T17:14:24.103Z,4.50
2023-02-17T17:17:04.802Z,4.40
2023-02-17T17:20:25.031Z,4.20
2023-02-17T17:23:18.620Z,4.60
2023-02-17T17:25:47.542Z,4.50
2023-02-17T17:28:26.807Z,4.50
2023-02-17T17:30:54.264Z,4.60
2023-02-17T17:33:36.701Z,4.20
2023-02-17T17:36:22.341Z,4.60
2023-02-17T17:39:24.477Z,4.40
2023-02-17T17:42:07.146Z,4.50
2023-02-17T17:44:35.160Z,4.50
2023-02-17T17:47:02.580Z,4.40
2023-02-17T17:49:38.253Z,4.40
2023-02-17T17:52:12.292Z,4.40
2023-02-17T17:54:54.594Z,4.40
2023-02-17T18:00:21.930Z,4.40
2023-02-17T18:03:07.735Z,4.80
2023-02-17T18:05:39.553Z,4.50
2023-02-17T18:08:16.615Z,4.40
2023-02-17T18:11:09.062Z,4.30
2023-02-17T18:17:03.180Z,4.40
2023-02-17T18:19:36.790Z,4.40
2023-02-17T18:28:24.828Z,4.50
2023-02-17T18:31:11.859Z,4.40
2023-02-17T18:33:39.529Z,4.40
2023-02-17T18:36:49.350Z,4.30
2023-02-17T18:39:22.623Z,4.50
2023-02-17T18:41:52.613Z,4.50
2023-02-17T18:44:25.208Z,4.50
2023-02-17T18:46:56.918Z,4.30
2023-02-17T18:49:35.449Z,4.20
2023-02-17T18:52:08.051Z,4.10
2023-02-17T18:54:37.925Z,4.20
2023-02-17T18:57:24.418Z,4.30
2023-02-17T18:59:53.203Z,4.60
2023-02-17T19:02:23.309Z,4.40
2023-02-17T19:05:07.036Z,4.00
2023-02-17T19:07:49.376Z,4.50
2023-02-17T19:10:19.759Z,5.30
2023-02-17T19:12:47.419Z,4.30
2023-02-17T19:15:21.443Z,4.50
2023-02-17T19:18:04.857Z,4.50
2023-02-17T19:24:01.311Z,4.30
2023-02-17T19:26:36.855Z,4.60
2023-02-17T19:32:48.556Z,4.40
2023-02-17T19:35:16.223Z,4.70
2023-02-17T19:37:56.488Z,4.70
2023-02-17T19:40:26.921Z,4.80
2023-02-17T19:42:58.826Z,4.80
2023-02-17T19:46:07.243Z,4.60
2023-02-17T19:49:02.259Z,4.70
2023-02-17T19:52:02.403Z,4.80
2023-02-17T19:54:38.470Z,4.90
2023-02-17T20:00:36.184Z,5.00
2023-02-17T20:03:24.002Z,4.80
2023-02-17T20:05:55.034Z,5.10
2023-02-17T20:08:34.287Z,4.90
2023-02-17T20:11:38.723Z,4.70
2023-02-17T20:14:07.234Z,5.10
2023-02-17T20:17:08.560Z,5.10
2023-02-17T20:22:40.596Z,5.00
2023-02-17T20:25:22.097Z,5.30
2023-02-17T20:27:53.922Z,5.00
2023-02-17T20:33:03.191Z,5.20
2023-02-17T20:35:39.146Z,5.00
2023-02-17T20:38:30.369Z,4.10
2023-02-17T20:40:59.115Z,5.20
2023-02-17T20:46:35.252Z,4.90
2023-02-17T20:49:23.548Z,5.30
2023-02-17T20:59:19.065Z,5.40
2023-02-17T21:12:01.042Z,5.30
2023-02-17T21:14:35.883Z,5.40
2023-02-17T21:19:51.394Z,5.10
2023-02-17T21:22:20.444Z,5.30
2023-02-17T21:25:05.804Z,5.40
2023-02-17T21:27:33.414Z,5.30
2023-02-17T21:30:14.176Z,5.30
2023-02-17T21:32:41.887Z,5.30
2023-02-17T21:35:10.852Z,5.40
2023-02-17T21:37:40.543Z,5.20
2023-02-17T21:40:09.136Z,5.30
2023-02-17T21:42:58.644Z,5.20
2023-02-17T21:45:33.137Z,5.00
2023-02-17T21:48:06.193Z,5.10
2023-02-17T21:50:45.294Z,5.10
2023-02-17T21:53:25.695Z,5.10
2023-02-17T21:55:55.977Z,5.10
2023-02-17T21:58:25.786Z,5.20
2023-02-17T22:00:55.561Z,5.40
2023-02-17T22:04:08.865Z,5.40
2023-02-17T22:07:16.272Z,5.50
2023-02-17T22:10:41.386Z,5.50
2023-02-17T22:13:19.626Z,5.50
2023-02-17T22:15:59.845Z,5.60
2023-02-17T22:18:29.648Z,5.70
2023-02-17T22:20:57.106Z,5.60
2023-02-17T22:23:24.551Z,5.60
2023-02-17T22:25:54.121Z,5.50
2023-02-17T22:28:21.700Z,5.50
2023-02-17T22:30:53.191Z,5.20
2023-02-17T22:33:20.498Z,5.70
2023-02-17T22:35:57.981Z,5.60
2023-02-17T22:38:25.586Z,5.50
2023-02-17T22:40:53.063Z,5.50
2023-02-17T22:43:20.595Z,5.60
2023-02-17T22:45:48.062Z,5.50
2023-02-17T22:48:15.371Z,5.50
2023-02-17T22:50:47.442Z,5.70
2023-02-17T22:53:14.797Z,5.80
2023-02-17T22:55:42.048Z,5.90
2023-02-17T22:58:09.592Z,5.70
2023-02-17T23:00:36.858Z,5.90
2023-02-17T23:03:04.250Z,5.70
2023-02-17T23:05:31.657Z,5.80
2023-02-17T23:07:59.849Z,5.80
2023-02-17T23:10:27.287Z,5.80
2023-02-17T23:12:55.774Z,5.80
2023-02-17T23:15:49.524Z,5.80
2023-02-17T23:18:20.117Z,6.00
2023-02-17T23:20:51.818Z,5.90
2023-02-17T23:23:20.029Z,6.00
2023-02-17T23:25:55.120Z,5.70
2023-02-17T23:28:25.515Z,5.90
2023-02-17T23:30:53.563Z,5.70
2023-02-17T23:33:26.600Z,5.70
2023-02-17T23:35:53.894Z,5.80
2023-02-17T23:38:24.610Z,5.70
2023-02-17T23:40:53.156Z,5.60
2023-02-17T23:43:22.489Z,5.90
2023-02-17T23:45:51.384Z,5.90
2023-02-17T23:48:44.808Z,6.00
2023-02-17T23:51:17.745Z,5.90
2023-02-17T23:53:45.742Z,6.20
2023-02-17T23:56:18.486Z,6.10
2023-02-17T23:58:46.026Z,6.10
